Time;durP1;ratioP1;P1;durP2;ratioP2;P2;SDS_P1;SDS_P2;PMS_P1;PMS_P2;Temp;Humidity;BMP_temperature;BMP_pressure;BME280_temperature;BME280_humidity;BME280_pressure;Samples;Min_cycle;Max_cycle;Signal;HPM_P1;HPM_P2
2023/04/07 00:01:11;;;;;;;5.30;3.42;;;17.40;99.90;;;;;;4952473;29;20589;-79
2023/04/07 00:03:43;;;;;;;4.18;3.15;;;17.50;99.90;;;;;;4953749;28;20337;-80
2023/04/07 00:06:14;;;;;;;6.07;3.55;;;17.50;99.90;;;;;;4956726;29;20676;-82
2023/04/07 00:08:45;;;;;;;7.03;3.83;;;17.50;99.90;;;;;;4957732;29;20208;-81
2023/04/07 00:11:18;;;;;;;7.15;3.80;;;17.50;99.90;;;;;;4957576;29;20200;-82
2023/04/07 00:13:49;;;;;;;7.07;4.28;;;17.50;99.90;;;;;;4955614;29;20220;-78
2023/04/07 00:16:20;;;;;;;7.53;3.80;;;17.40;99.90;;;;;;4956847;29;20201;-79
2023/04/07 00:18:51;;;;;;;6.00;3.85;;;17.50;99.90;;;;;;4957435;29;20197;-78
2023/04/07 00:21:22;;;;;;;6.40;3.60;;;17.40;99.90;;;;;;4953514;28;20197;-78
2023/04/07 00:23:53;;;;;;;5.35;3.25;;;17.40;99.90;;;;;;4950108;29;20204;-76
2023/04/07 00:26:30;;;;;;;6.47;3.80;;;17.40;99.90;;;;;;4957049;29;20680;-75
2023/04/07 00:29:01;;;;;;;5.80;3.67;;;17.30;99.90;;;;;;4957421;29;20196;-76
2023/04/07 00:31:32;;;;;;;6.65;3.80;;;17.40;99.90;;;;;;4953362;29;20201;-77
2023/04/07 00:34:03;;;;;;;8.38;4.72;;;17.30;99.90;;;;;;4956172;29;20232;-76
2023/04/07 00:36:34;;;;;;;7.57;4.18;;;17.30;99.90;;;;;;4956217;29;20210;-76
2023/04/07 00:39:06;;;;;;;11.73;5.20;;;17.30;99.90;;;;;;4957440;29;20201;-76
2023/04/07 00:41:39;;;;;;;5.78;4.28;;;17.20;99.90;;;;;;4954007;29;20197;-76
2023/04/07 00:44:11;;;;;;;9.07;5.50;;;17.30;99.90;;;;;;4954031;29;20213;-76
2023/04/07 00:46:42;;;;;;;8.30;5.90;;;17.30;99.90;;;;;;4943905;29;20204;-76
2023/04/07 00:49:14;;;;;;;9.73;5.47;;;17.30;99.90;;;;;;4951849;29;20657;-76
2023/04/07 00:51:45;;;;;;;9.00;5.25;;;17.20;99.90;;;;;;4947845;29;20197;-76
2023/04/07 00:54:16;;;;;;;10.02;5.78;;;17.20;99.90;;;;;;4947747;29;20236;-76
2023/04/07 00:56:49;;;;;;;11.45;5.82;;;17.30;99.90;;;;;;4947978;29;20201;-76
2023/04/07 00:59:21;;;;;;;8.02;5.00;;;17.30;99.90;;;;;;4951008;29;20198;-75
2023/04/07 01:02:03;;;;;;;8.77;4.70;;;17.30;99.90;;;;;;4949462;29;20243;-76
2023/04/07 01:04:40;;;;;;;5.90;3.95;;;17.30;99.90;;;;;;4948537;29;20230;-75
2023/04/07 01:07:15;;;;;;;6.93;3.72;;;17.30;99.90;;;;;;4954879;29;20196;-76
2023/04/07 01:09:51;;;;;;;7.00;3.47;;;17.40;99.90;;;;;;4948273;29;20192;-76
2023/04/07 01:12:37;;;;;;;4.75;3.38;;;17.50;99.90;;;;;;4948240;29;20649;-76
2023/04/07 01:15:12;;;;;;;5.95;3.65;;;17.60;99.90;;;;;;4956166;29;20217;-75
2023/04/07 01:17:47;;;;;;;4.50;3.00;;;17.70;99.90;;;;;;4955416;29;20200;-76
2023/04/07 01:20:21;;;;;;;4.60;2.70;;;17.80;99.90;;;;;;4955196;29;20233;-76
2023/04/07 01:22:57;;;;;;;4.53;2.90;;;17.90;99.90;;;;;;4950331;29;20196;-75
2023/04/07 01:25:55;;;;;;;8.98;4.40;;;18.00;99.90;;;;;;4948636;29;20211;-76
2023/04/07 01:28:46;;;;;;;6.95;4.05;;;18.30;99.90;;;;;;4948129;29;20204;-76
2023/04/07 01:31:20;;;;;;;4.10;2.20;;;18.30;99.90;;;;;;4952054;29;20562;-77
2023/04/07 01:33:52;;;;;;;5.65;1.80;;;18.60;99.90;;;;;;4949688;28;20223;-76
2023/04/07 01:36:25;;;;;;;5.05;1.80;;;18.60;99.90;;;;;;4951580;29;20200;-75
2023/04/07 01:38:57;;;;;;;3.08;1.60;;;18.60;99.90;;;;;;4953550;29;20605;-77
2023/04/07 01:41:28;;;;;;;3.35;1.63;;;18.60;99.90;;;;;;4949469;29;20668;-75
2023/04/07 01:44:00;;;;;;;4.47;1.70;;;18.70;99.90;;;;;;4955472;29;20693;-76
2023/04/07 01:46:33;;;;;;;3.67;1.90;;;18.80;99.90;;;;;;4956206;29;20208;-76
2023/04/07 01:49:05;;;;;;;4.63;1.80;;;19.00;99.90;;;;;;4948971;28;20216;-75
2023/04/07 01:51:38;;;;;;;3.33;1.75;;;19.10;99.90;;;;;;4951790;29;20201;-76
2023/04/07 01:54:09;;;;;;;4.00;1.50;;;19.20;99.90;;;;;;4954119;29;20240;-75
2023/04/07 01:56:40;;;;;;;4.25;1.48;;;19.10;99.90;;;;;;4937710;29;20232;-77
2023/04/07 01:59:11;;;;;;;3.45;1.40;;;19.10;99.90;;;;;;4953751;29;20235;-79
2023/04/07 02:01:44;;;;;;;3.72;1.40;;;19.10;99.90;;;;;;4953747;28;20244;-78
2023/04/07 02:04:23;;;;;;;4.57;1.30;;;19.10;99.90;;;;;;4949189;29;20213;-77
2023/04/07 02:06:59;;;;;;;3.42;1.40;;;19.10;99.90;;;;;;4954350;29;20193;-77
2023/04/07 02:09:33;;;;;;;3.42;1.27;;;19.20;99.90;;;;;;4948886;29;20652;-78
2023/04/07 02:12:06;;;;;;;7.60;1.30;;;19.30;99.90;;;;;;4950008;29;20209;-79
2023/04/07 02:14:37;;;;;;;4.53;1.30;;;19.50;99.90;;;;;;4953842;29;20224;-79
2023/04/07 02:17:11;;;;;;;2.13;1.00;;;19.70;99.90;;;;;;4946443;29;20225;-78
2023/04/07 02:19:43;;;;;;;4.10;1.13;;;19.80;99.90;;;;;;4954409;29;20644;-77
2023/04/07 02:22:15;;;;;;;4.95;1.00;;;19.80;99.90;;;;;;4955311;29;20192;-81
2023/04/07 02:24:46;;;;;;;3.22;0.90;;;19.90;99.90;;;;;;4955662;29;20197;-84
2023/04/07 02:27:17;;;;;;;3.50;0.95;;;19.90;99.90;;;;;;4955581;29;20201;-75
2023/04/07 02:29:48;;;;;;;2.60;0.80;;;20.00;99.90;;;;;;4955151;29;20661;-87
2023/04/07 02:32:21;;;;;;;3.78;0.90;;;20.10;99.90;;;;;;4955251;29;20664;-86
2023/04/07 02:34:52;;;;;;;2.58;1.00;;;20.10;99.90;;;;;;4955263;29;20563;-77
2023/04/07 02:37:23;;;;;;;1.65;0.85;;;20.20;99.90;;;;;;4955310;29;20193;-83
2023/04/07 02:39:54;;;;;;;2.70;0.98;;;20.30;99.90;;;;;;4955306;29;20223;-78
2023/04/07 02:42:25;;;;;;;2.22;0.90;;;20.30;99.90;;;;;;4953218;29;22941;-82
2023/04/07 02:44:56;;;;;;;2.60;1.15;;;20.40;99.90;;;;;;4945843;29;20205;-81
2023/04/07 02:47:29;;;;;;;1.70;0.88;;;20.60;99.90;;;;;;4955296;29;20201;-82
2023/04/07 02:50:00;;;;;;;0.75;0.75;;;20.80;99.90;;;;;;4955397;29;20197;-76
2023/04/07 02:52:31;;;;;;;1.77;0.90;;;21.00;99.90;;;;;;4955318;29;20653;-84
2023/04/07 02:55:02;;;;;;;1.50;0.77;;;21.10;99.90;;;;;;4955249;29;20688;-86
2023/04/07 02:57:34;;;;;;;3.55;0.95;;;21.20;99.90;;;;;;4955035;29;20189;-82
2023/04/07 03:00:05;;;;;;;2.70;0.82;;;21.30;99.90;;;;;;4955332;29;20193;-87
2023/04/07 03:02:38;;;;;;;2.15;0.68;;;21.30;99.90;;;;;;4954949;29;20240;-80
2023/04/07 03:05:09;;;;;;;2.95;0.77;;;21.40;99.90;;;;;;4955435;29;20197;-76
2023/04/07 03:07:40;;;;;;;2.08;0.90;;;21.50;99.90;;;;;;4956059;29;20204;-84
2023/04/07 03:10:12;;;;;;;3.90;0.80;;;21.70;99.90;;;;;;4955911;29;20193;-91
2023/04/07 03:12:43;;;;;;;3.90;0.90;;;21.90;99.90;;;;;;4955376;29;20193;-89
2023/04/07 03:15:14;;;;;;;1.55;0.70;;;21.90;99.90;;;;;;4955415;29;20224;-86
2023/04/07 03:17:47;;;;;;;1.52;0.52;;;22.00;99.90;;;;;;4955574;29;20208;-78
2023/04/07 03:20:18;;;;;;;1.85;0.70;;;22.10;99.90;;;;;;4955243;29;20197;-80
2023/04/07 03:22:49;;;;;;;3.30;0.70;;;22.20;99.90;;;;;;4955310;29;20204;-90
2023/04/07 03:25:20;;;;;;;1.48;0.68;;;22.30;99.90;;;;;;4955550;29;20196;-87
2023/04/07 03:27:51;;;;;;;1.05;0.70;;;22.30;99.90;;;;;;4955452;29;20200;-92
2023/04/07 03:30:23;;;;;;;0.80;0.70;;;22.30;99.90;;;;;;4955256;29;20560;-89
2023/04/07 03:32:56;;;;;;;3.83;0.70;;;22.40;99.90;;;;;;4955303;29;20593;-92
2023/04/07 03:35:27;;;;;;;3.10;0.70;;;22.40;99.90;;;;;;4956122;29;20224;-91
2023/04/07 03:37:58;;;;;;;1.58;0.80;;;22.50;99.90;;;;;;4955201;29;20216;-92
2023/04/07 03:40:32;;;;;;;2.25;0.70;;;22.50;99.90;;;;;;4955371;29;20228;-88
2023/04/07 03:43:03;;;;;;;1.92;0.70;;;22.60;99.90;;;;;;4955183;29;20189;-87
2023/04/07 03:45:35;;;;;;;2.97;1.00;;;22.60;99.90;;;;;;4954928;29;20216;-88
2023/04/07 03:48:10;;;;;;;1.45;0.70;;;22.60;99.90;;;;;;4955290;29;20198;-89
2023/04/07 03:50:42;;;;;;;2.22;0.80;;;22.70;99.90;;;;;;4955333;29;20195;-84
2023/04/07 03:53:15;;;;;;;0.73;0.63;;;22.70;99.90;;;;;;4955688;29;20189;-91
2023/04/07 03:55:46;;;;;;;0.88;0.55;;;22.80;99.90;;;;;;4954982;28;20254;-85
2023/04/07 03:58:17;;;;;;;1.98;0.82;;;22.90;99.90;;;;;;4958723;29;20197;-81
2023/04/07 04:00:48;;;;;;;2.42;0.80;;;23.00;99.90;;;;;;4958671;29;20589;-92
2023/04/07 04:03:21;;;;;;;3.95;0.60;;;23.00;99.90;;;;;;4958757;29;20704;-92
2023/04/07 04:05:52;;;;;;;0.90;0.70;;;23.10;99.90;;;;;;4958714;29;20561;-83
2023/04/07 04:08:23;;;;;;;1.67;0.70;;;23.20;99.90;;;;;;4958581;29;20633;-81
2023/04/07 04:10:55;;;;;;;3.53;0.77;;;23.20;99.90;;;;;;4957861;29;20196;-90
2023/04/07 04:13:26;;;;;;;1.92;0.70;;;23.30;99.90;;;;;;4958773;29;20193;-90
2023/04/07 04:15:57;;;;;;;1.77;0.60;;;23.30;99.90;;;;;;4958379;29;20216;-89
2023/04/07 04:18:30;;;;;;;1.65;0.60;;;23.40;99.90;;;;;;4959156;29;20197;-87
2023/04/07 04:21:01;;;;;;;0.55;0.30;;;23.40;99.90;;;;;;4958174;29;20199;-82
2023/04/07 04:23:32;;;;;;;1.85;0.60;;;23.40;99.90;;;;;;4957900;29;20220;-87
2023/04/07 04:26:03;;;;;;;0.80;0.50;;;23.50;99.90;;;;;;4957927;29;20220;-91
2023/04/07 04:28:34;;;;;;;2.08;0.70;;;23.50;99.90;;;;;;4958324;29;20252;-80
2023/04/07 04:31:05;;;;;;;0.90;0.55;;;23.60;99.90;;;;;;4957959;29;20657;-88
2023/04/07 04:33:38;;;;;;;2.53;0.60;;;23.60;99.90;;;;;;4958209;29;20220;-86
2023/04/07 04:36:10;;;;;;;1.45;0.55;;;23.60;99.90;;;;;;4957828;29;20246;-89
2023/04/07 04:38:41;;;;;;;0.95;0.60;;;23.60;99.90;;;;;;4963856;28;20302;-79
2023/04/07 04:41:12;;;;;;;1.55;0.60;;;23.70;99.90;;;;;;4977073;28;20542;-83
2023/04/07 04:43:43;;;;;;;0.57;0.35;;;23.70;99.90;;;;;;4977325;28;20648;-93
2023/04/07 04:46:14;;;;;;;1.17;0.55;;;23.70;99.90;;;;;;4976991;28;20535;-89
2023/04/07 04:48:47;;;;;;;0.60;0.43;;;23.80;99.90;;;;;;4977295;28;20700;-92
2023/04/07 04:51:18;;;;;;;0.73;0.43;;;23.70;99.90;;;;;;4977053;28;20192;-85
2023/04/07 04:53:49;;;;;;;1.15;0.50;;;23.70;99.90;;;;;;4977280;28;20636;-93
2023/04/07 04:56:20;;;;;;;0.40;0.32;;;23.70;99.90;;;;;;4949670;29;20716;-89
2023/04/07 04:58:51;;;;;;;0.57;0.40;;;23.70;99.90;;;;;;4957725;29;20637;-89
2023/04/07 05:01:22;;;;;;;1.02;0.50;;;23.70;99.90;;;;;;4957506;29;20232;-87
2023/04/07 05:03:55;;;;;;;1.90;0.45;;;23.80;99.90;;;;;;4956538;29;20204;-90
2023/04/07 05:06:26;;;;;;;0.70;0.40;;;23.80;99.90;;;;;;4956872;29;20548;-81
2023/04/07 05:08:57;;;;;;;1.27;0.47;;;23.80;99.90;;;;;;4955310;28;20200;-90
2023/04/07 05:11:28;;;;;;;1.80;0.40;;;23.80;99.90;;;;;;4956405;29;20289;-88
2023/04/07 05:13:59;;;;;;;1.35;0.57;;;23.80;99.90;;;;;;4952532;29;20205;-84
2023/04/07 05:16:31;;;;;;;1.38;0.40;;;23.80;99.90;;;;;;4956248;29;20220;-76
2023/04/07 05:19:04;;;;;;;1.10;0.57;;;23.80;99.90;;;;;;4956465;29;20203;-92
2023/04/07 05:21:35;;;;;;;2.03;0.50;;;23.80;99.90;;;;;;4955748;29;20204;-86
2023/04/07 05:24:06;;;;;;;1.65;0.50;;;23.80;99.90;;;;;;4955689;29;20571;-82
2023/04/07 05:26:37;;;;;;;1.15;0.40;;;23.80;99.90;;;;;;4956258;29;20225;-83
2023/04/07 05:29:08;;;;;;;1.08;0.40;;;23.80;99.90;;;;;;4956478;29;20200;-87
2023/04/07 05:31:40;;;;;;;1.75;0.47;;;23.80;99.90;;;;;;4955990;29;20200;-78
2023/04/07 05:34:13;;;;;;;0.40;0.40;;;23.80;99.90;;;;;;4955886;29;20284;-85
2023/04/07 05:36:44;;;;;;;0.82;0.50;;;23.80;99.90;;;;;;4955906;29;20232;-85
2023/04/07 05:39:15;;;;;;;0.40;0.40;;;23.80;99.90;;;;;;4955205;29;20204;-89
2023/04/07 05:41:46;;;;;;;1.17;0.50;;;23.80;99.90;;;;;;4954610;29;20205;-88
2023/04/07 05:44:17;;;;;;;0.50;0.40;;;23.80;99.90;;;;;;4955645;29;20197;-86
2023/04/07 05:46:48;;;;;;;3.78;1.00;;;23.90;99.90;;;;;;4955790;29;20201;-81
2023/04/07 05:49:21;;;;;;;6.75;2.00;;;23.90;99.90;;;;;;4955468;29;20208;-84
2023/04/07 05:51:52;;;;;;;6.05;1.92;;;23.90;99.90;;;;;;4955182;29;20200;-84
2023/04/07 05:54:23;;;;;;;9.15;2.30;;;23.90;99.90;;;;;;4955425;29;20200;-84
2023/04/07 05:56:55;;;;;;;7.35;2.40;;;23.90;99.90;;;;;;4955047;29;20221;-88
2023/04/07 05:59:26;;;;;;;4.55;1.38;;;23.80;99.90;;;;;;4953789;29;20189;-83
2023/04/07 06:01:57;;;;;;;8.40;1.30;;;23.80;99.90;;;;;;4851610;29;2992283;-87
2023/04/07 06:04:31;;;;;;;2.20;1.02;;;23.70;99.90;;;;;;4954799;29;20568;-90
2023/04/07 06:07:02;;;;;;;5.57;1.30;;;23.60;99.90;;;;;;4955016;29;20193;-83
2023/04/07 06:09:33;;;;;;;6.38;1.33;;;23.50;99.90;;;;;;4954943;29;20193;-87
2023/04/07 06:12:05;;;;;;;1.75;0.80;;;23.40;99.90;;;;;;4955461;29;20185;-85
2023/04/07 06:14:36;;;;;;;2.13;0.80;;;23.20;99.90;;;;;;4955114;29;20233;-84
2023/04/07 06:17:07;;;;;;;3.33;0.73;;;23.10;99.90;;;;;;4955595;29;20220;-79
2023/04/07 06:19:40;;;;;;;0.55;0.50;;;23.00;99.90;;;;;;4955574;28;20193;-79
2023/04/07 06:22:11;;;;;;;0.45;0.45;;;22.90;99.90;;;;;;4955785;29;20197;-79
2023/04/07 06:24:43;;;;;;;0.50;0.50;;;22.90;99.90;;;;;;4955749;29;20278;-83
2023/04/07 06:27:14;;;;;;;0.68;0.50;;;22.80;99.90;;;;;;4955909;29;20193;-87
2023/04/07 06:29:45;;;;;;;2.47;0.60;;;22.80;99.90;;;;;;4955864;29;20197;-90
2023/04/07 06:32:16;;;;;;;0.60;0.60;;;22.80;99.90;;;;;;4955825;29;20193;-90
2023/04/07 06:34:49;;;;;;;0.73;0.68;;;22.80;99.90;;;;;;4955284;29;20201;-89
2023/04/07 06:37:20;;;;;;;1.42;0.60;;;22.80;99.90;;;;;;4955968;29;20216;-91
2023/04/07 06:39:51;;;;;;;1.52;0.70;;;22.80;99.90;;;;;;4955630;29;20214;-93
2023/04/07 06:42:22;;;;;;;1.15;0.88;;;22.70;99.90;;;;;;4955702;29;20200;-81
2023/04/07 06:44:53;;;;;;;2.15;0.70;;;22.70;99.90;;;;;;4955861;29;20216;-82
2023/04/07 06:47:24;;;;;;;2.97;0.70;;;22.70;99.90;;;;;;4955791;29;20200;-90
2023/04/07 06:49:57;;;;;;;1.13;0.70;;;22.70;99.90;;;;;;4955292;29;20196;-88
2023/04/07 06:52:28;;;;;;;1.00;0.88;;;22.60;99.90;;;;;;4955887;29;20196;-88
2023/04/07 06:54:59;;;;;;;1.38;0.60;;;22.60;99.90;;;;;;4955530;29;20197;-80
2023/04/07 06:57:30;;;;;;;0.75;0.70;;;22.60;99.90;;;;;;4955656;29;20224;-85
2023/04/07 07:00:01;;;;;;;1.42;0.80;;;22.50;99.90;;;;;;4955877;29;20193;-80
2023/04/07 07:02:32;;;;;;;1.25;0.90;;;22.50;99.90;;;;;;4955174;29;20702;-83
2023/04/07 07:05:05;;;;;;;2.25;0.73;;;22.50;99.90;;;;;;4955733;29;20196;-87
2023/04/07 07:07:36;;;;;;;2.95;0.93;;;22.50;99.90;;;;;;4956047;29;20204;-87
2023/04/07 07:10:08;;;;;;;1.25;0.80;;;22.40;99.90;;;;;;4955406;29;20204;-83
2023/04/07 07:12:39;;;;;;;0.88;0.70;;;22.40;99.90;;;;;;4955540;29;20193;-81
2023/04/07 07:15:11;;;;;;;1.35;0.80;;;22.40;99.90;;;;;;4955542;29;20197;-88
2023/04/07 07:17:42;;;;;;;2.35;0.70;;;22.30;99.90;;;;;;4955544;29;20224;-86
2023/04/07 07:20:16;;;;;;;1.83;0.70;;;22.30;99.90;;;;;;4955577;29;20230;-91
2023/04/07 07:22:47;;;;;;;2.03;0.70;;;22.20;99.90;;;;;;4955521;29;20200;-87
2023/04/07 07:25:18;;;;;;;0.60;0.60;;;22.20;99.90;;;;;;4955582;29;20570;-82
2023/04/07 07:27:52;;;;;;;1.40;1.30;;;22.20;99.90;;;;;;4955348;29;20204;-83
2023/04/07 07:30:24;;;;;;;1.48;0.90;;;22.20;99.90;;;;;;4955380;28;20276;-91
2023/04/07 07:32:55;;;;;;;3.38;0.82;;;22.20;99.90;;;;;;4956456;29;20208;-92
2023/04/07 07:35:28;;;;;;;0.80;0.70;;;22.20;99.90;;;;;;4953655;29;20200;-83
2023/04/07 07:37:59;;;;;;;2.25;0.90;;;22.20;99.90;;;;;;4953875;29;20688;-93
2023/04/07 07:40:30;;;;;;;0.73;0.70;;;22.20;99.90;;;;;;4947282;29;20653;-85
2023/04/07 07:43:05;;;;;;;1.15;0.80;;;22.10;99.90;;;;;;4947807;29;20212;-79
2023/04/07 07:45:38;;;;;;;1.48;0.93;;;22.10;99.90;;;;;;4953654;29;20200;-83
2023/04/07 07:48:10;;;;;;;0.80;0.80;;;22.10;99.90;;;;;;4957570;29;20212;-86
2023/04/07 07:50:43;;;;;;;2.33;0.90;;;22.00;99.90;;;;;;4956198;29;20197;-81
2023/04/07 07:53:14;;;;;;;1.83;0.80;;;21.90;99.90;;;;;;4959468;29;20197;-91
2023/04/07 07:55:45;;;;;;;1.30;0.80;;;21.80;99.90;;;;;;4959039;29;20193;-85
2023/04/07 07:58:16;;;;;;;2.13;0.90;;;21.80;99.90;;;;;;4957676;29;20231;-88
2023/04/07 08:00:47;;;;;;;1.55;1.00;;;21.80;99.90;;;;;;4956730;28;20229;-92
2023/04/07 08:03:21;;;;;;;1.83;0.90;;;21.70;99.90;;;;;;4955699;29;20692;-87
2023/04/07 08:05:54;;;;;;;0.73;0.70;;;21.70;99.90;;;;;;4956898;29;20196;-88
2023/04/07 08:08:28;;;;;;;1.60;1.27;;;21.60;99.90;;;;;;4959091;29;20189;-88
2023/04/07 08:11:00;;;;;;;3.22;1.30;;;21.60;99.90;;;;;;4958326;28;20238;-85
2023/04/07 08:13:31;;;;;;;1.10;1.00;;;21.60;99.90;;;;;;4957613;29;20208;-91
2023/04/07 08:16:02;;;;;;;1.77;0.93;;;21.50;99.90;;;;;;4956353;29;20229;-85
2023/04/07 08:18:33;;;;;;;1.90;1.08;;;21.50;99.90;;;;;;4957765;29;20201;-77
2023/04/07 08:21:07;;;;;;;1.75;1.13;;;21.50;99.90;;;;;;4957718;29;20626;-85
2023/04/07 08:23:38;;;;;;;2.88;1.80;;;21.50;99.90;;;;;;4957707;29;20200;-85
2023/04/07 08:26:09;;;;;;;1.92;1.50;;;21.40;99.90;;;;;;4955841;29;20211;-82
2023/04/07 08:28:40;;;;;;;1.27;1.10;;;21.40;99.90;;;;;;4956637;29;20656;-84
2023/04/07 08:31:11;;;;;;;2.08;1.40;;;21.30;99.90;;;;;;4957239;29;20200;-86
2023/04/07 08:33:42;;;;;;;4.63;1.20;;;21.30;99.90;;;;;;4957617;29;20205;-83
2023/04/07 08:36:15;;;;;;;3.08;1.10;;;21.20;99.90;;;;;;4957354;29;20571;-78
2023/04/07 08:38:46;;;;;;;1.92;1.20;;;21.20;99.90;;;;;;4957426;29;20189;-78
2023/04/07 08:41:24;;;;;;;3.13;1.20;;;21.20;99.90;;;;;;4957026;29;20666;-86
2023/04/07 08:43:55;;;;;;;3.85;1.20;;;21.10;99.90;;;;;;4957079;28;20195;-78
2023/04/07 08:46:28;;;;;;;2.05;1.10;;;21.10;99.90;;;;;;4957177;29;20197;-78
2023/04/07 08:49:00;;;;;;;1.25;1.10;;;21.10;99.90;;;;;;4957221;29;20204;-78
2023/04/07 08:51:34;;;;;;;2.17;1.50;;;21.00;99.90;;;;;;4956986;29;20694;-78
2023/04/07 08:54:10;;;;;;;2.13;1.30;;;21.00;99.90;;;;;;4957253;29;20208;-78
2023/04/07 08:56:42;;;;;;;2.05;1.50;;;20.90;99.90;;;;;;4956700;29;20225;-77
2023/04/07 08:59:17;;;;;;;2.55;1.60;;;20.90;99.90;;;;;;4957095;29;20561;-78
2023/04/07 09:01:49;;;;;;;3.92;1.58;;;20.90;99.90;;;;;;4956476;28;20332;-77
2023/04/07 09:04:21;;;;;;;1.92;1.58;;;20.80;99.90;;;;;;4948612;29;20289;-78
2023/04/07 09:06:55;;;;;;;1.60;1.50;;;20.80;99.90;;;;;;4953147;29;20205;-80
2023/04/07 09:09:26;;;;;;;2.03;1.80;;;20.80;99.90;;;;;;4950709;29;20678;-84
2023/04/07 09:11:57;;;;;;;1.83;1.60;;;20.80;99.90;;;;;;4953147;29;20561;-78
2023/04/07 09:14:28;;;;;;;5.20;2.00;;;20.80;99.90;;;;;;4955592;28;20548;-83
2023/04/07 09:17:01;;;;;;;4.03;1.70;;;20.80;99.90;;;;;;4952938;29;20236;-79
2023/04/07 09:19:32;;;;;;;1.50;1.40;;;20.80;99.90;;;;;;4955355;29;20197;-78
2023/04/07 09:22:05;;;;;;;1.83;1.55;;;20.80;99.90;;;;;;4955222;29;20205;-83
2023/04/07 09:24:37;;;;;;;1.50;1.40;;;20.80;99.90;;;;;;4953236;29;20649;-86
2023/04/07 09:27:16;;;;;;;1.98;1.25;;;20.70;99.90;;;;;;4955411;29;20216;-85
2023/04/07 09:29:49;;;;;;;2.10;1.20;;;20.70;99.90;;;;;;4954704;29;20197;-78
2023/04/07 09:32:40;;;;;;;1.77;1.20;;;20.70;99.90;;;;;;4953146;29;20212;-81
2023/04/07 09:35:11;;;;;;;2.50;1.17;;;20.70;99.90;;;;;;4954434;29;20205;-83
2023/04/07 09:37:45;;;;;;;1.25;1.15;;;20.70;99.90;;;;;;4948819;29;20224;-85
2023/04/07 09:40:27;;;;;;;2.03;1.20;;;20.70;99.90;;;;;;4953059;29;20200;-79
2023/04/07 09:42:59;;;;;;;0.80;0.80;;;20.70;99.90;;;;;;4949223;29;20201;-83
2023/04/07 09:45:31;;;;;;;1.58;0.90;;;20.70;99.90;;;;;;4954756;29;20208;-83
2023/04/07 09:48:06;;;;;;;1.25;0.93;;;20.70;99.90;;;;;;4952786;28;20211;-83
2023/04/07 09:50:38;;;;;;;1.27;0.98;;;20.80;99.90;;;;;;4953385;28;21442;-82
2023/04/07 09:53:11;;;;;;;2.35;1.00;;;20.80;99.90;;;;;;4956164;29;20231;-85
2023/04/07 09:55:43;;;;;;;2.10;1.00;;;20.80;99.90;;;;;;4955277;29;20200;-79
2023/04/07 09:58:17;;;;;;;1.02;0.70;;;20.80;99.90;;;;;;4951811;29;20220;-85
2023/04/07 10:00:49;;;;;;;1.85;0.90;;;20.90;99.90;;;;;;4945609;28;20224;-77
2023/04/07 10:03:20;;;;;;;2.05;0.95;;;20.90;99.90;;;;;;4948640;28;20724;-77
2023/04/07 10:05:52;;;;;;;1.73;1.00;;;21.00;99.90;;;;;;4954871;29;20204;-86
2023/04/07 10:08:25;;;;;;;1.33;0.80;;;21.00;99.90;;;;;;4955471;29;20201;-84
2023/04/07 10:10:56;;;;;;;1.38;0.70;;;21.00;99.90;;;;;;4954532;29;20570;-84
2023/04/07 10:13:28;;;;;;;1.35;0.80;;;21.00;99.90;;;;;;4953182;28;20207;-85
2023/04/07 10:16:00;;;;;;;1.30;0.85;;;21.00;99.90;;;;;;4954767;29;20201;-82
2023/04/07 10:18:33;;;;;;;1.00;0.80;;;21.00;99.90;;;;;;4955270;29;20220;-84
2023/04/07 10:21:06;;;;;;;1.85;1.05;;;21.00;99.90;;;;;;4955401;29;20201;-85
2023/04/07 10:23:52;;;;;;;1.38;0.80;;;21.00;99.90;;;;;;4948171;29;20197;-83
2023/04/07 10:26:28;;;;;;;1.33;0.90;;;21.00;99.90;;;;;;4947983;29;20214;-81
2023/04/07 10:29:06;;;;;;;2.58;1.30;;;21.30;99.90;;;;;;4951597;29;20212;-80
2023/04/07 10:31:37;;;;;;;1.92;0.98;;;21.40;99.90;;;;;;4947277;29;20203;-86
2023/04/07 10:34:08;;;;;;;2.05;1.17;;;21.40;99.90;;;;;;4952320;29;20668;-79
2023/04/07 10:36:59;;;;;;;2.03;0.90;;;21.20;99.90;;;;;;4955409;29;20204;-82
2023/04/07 10:39:34;;;;;;;0.70;0.60;;;21.00;99.90;;;;;;4951634;28;20216;-79
2023/04/07 10:42:05;;;;;;;2.47;0.80;;;20.50;99.90;;;;;;4947762;29;20204;-79
2023/04/07 10:44:52;;;;;;;1.48;0.60;;;20.20;99.90;;;;;;4955180;29;20213;-79
2023/04/07 10:47:23;;;;;;;1.58;0.80;;;20.00;99.90;;;;;;4953815;29;20200;-78
2023/04/07 10:50:22;;;;;;;2.30;0.57;;;19.70;99.90;;;;;;4954036;29;20207;-78
2023/04/07 10:53:08;;;;;;;1.52;0.60;;;19.40;99.90;;;;;;4944669;29;20205;-77
2023/04/07 10:55:42;;;;;;;1.30;0.70;;;19.10;99.90;;;;;;4955084;29;20201;-81
2023/04/07 10:58:27;;;;;;;1.63;0.70;;;18.90;99.90;;;;;;4951335;28;20208;-79
2023/04/07 11:01:22;;;;;;;2.15;0.90;;;18.70;99.90;;;;;;4945437;29;20221;-81
2023/04/07 11:03:58;;;;;;;1.48;1.08;;;18.60;99.90;;;;;;4954803;29;20201;-81
2023/04/07 11:06:30;;;;;;;2.75;1.00;;;18.50;99.90;;;;;;4956332;28;20574;-79
2023/04/07 11:09:01;;;;;;;2.35;0.93;;;18.50;99.90;;;;;;4958834;29;20208;-80
2023/04/07 11:11:46;;;;;;;3.83;1.05;;;18.50;99.90;;;;;;4956286;29;20208;-77
2023/04/07 11:14:28;;;;;;;1.67;1.17;;;18.50;99.90;;;;;;4951410;29;20243;-78
2023/04/07 11:17:00;;;;;;;2.83;1.20;;;18.40;99.90;;;;;;4958502;29;20201;-81
2023/04/07 11:19:32;;;;;;;2.03;1.17;;;18.40;99.90;;;;;;4957904;29;20197;-80
2023/04/07 11:22:19;;;;;;;1.52;1.30;;;18.40;99.90;;;;;;4945771;29;20224;-80
2023/04/07 11:24:50;;;;;;;1.42;1.30;;;18.30;99.90;;;;;;4955778;29;20192;-78
2023/04/07 11:27:23;;;;;;;1.98;1.23;;;18.40;99.90;;;;;;4948993;29;20212;-77
2023/04/07 11:29:54;;;;;;;2.05;1.38;;;18.30;99.90;;;;;;4957019;29;20196;-80
2023/04/07 11:32:28;;;;;;;1.92;1.35;;;18.40;99.90;;;;;;4958421;29;20212;-79
2023/04/07 11:35:00;;;;;;;3.15;1.63;;;18.40;99.90;;;;;;4951286;29;20540;-78
2023/04/07 11:37:32;;;;;;;2.90;1.90;;;18.30;99.90;;;;;;4955395;29;20224;-78
2023/04/07 11:40:03;;;;;;;3.50;2.00;;;18.30;99.90;;;;;;4953066;29;20201;-77
2023/04/07 11:42:40;;;;;;;2.95;1.90;;;18.30;99.90;;;;;;4950750;29;20308;-78
2023/04/07 11:45:20;;;;;;;4.03;1.92;;;18.20;99.90;;;;;;4957236;29;20204;-78
2023/04/07 11:47:51;;;;;;;2.08;1.65;;;18.20;99.90;;;;;;4957122;29;20207;-80
2023/04/07 11:50:42;;;;;;;3.17;1.70;;;18.20;99.90;;;;;;4955697;29;20570;-77
2023/04/07 11:53:13;;;;;;;2.70;1.55;;;18.20;99.90;;;;;;4957368;29;20208;-78
2023/04/07 11:55:44;;;;;;;3.40;1.30;;;18.20;99.90;;;;;;4956203;29;20197;-77
2023/04/07 11:58:17;;;;;;;3.17;1.52;;;18.10;99.90;;;;;;4957741;29;20695;-78
2023/04/07 12:00:57;;;;;;;1.92;1.33;;;18.10;99.90;;;;;;4956985;29;20220;-80
2023/04/07 12:03:28;;;;;;;2.60;1.50;;;18.10;99.90;;;;;;4955796;28;20232;-78
2023/04/07 12:05:59;;;;;;;2.35;1.63;;;18.00;99.90;;;;;;4970596;28;20719;-76
2023/04/07 12:08:44;;;;;;;3.15;1.40;;;18.00;99.90;;;;;;4957106;29;20200;-79
2023/04/07 12:11:15;;;;;;;2.65;1.20;;;18.00;99.90;;;;;;4957514;29;20197;-80
2023/04/07 12:13:48;;;;;;;3.53;1.20;;;18.00;99.90;;;;;;4956536;29;20201;-79
2023/04/07 12:16:19;;;;;;;2.15;1.08;;;17.90;99.90;;;;;;4953710;29;20200;-79
2023/04/07 12:18:51;;;;;;;2.92;1.30;;;17.90;99.90;;;;;;4955435;29;20220;-79
2023/04/07 12:21:23;;;;;;;1.73;1.40;;;17.80;99.90;;;;;;4956042;29;20252;-77
2023/04/07 12:23:54;;;;;;;3.53;1.92;;;17.70;99.90;;;;;;4956793;29;20197;-80
2023/04/07 12:26:25;;;;;;;3.13;1.88;;;17.60;99.90;;;;;;4956553;29;20200;-80
2023/04/07 12:29:03;;;;;;;2.38;1.63;;;17.60;99.90;;;;;;4954420;28;20205;-77
2023/04/07 12:31:35;;;;;;;3.85;1.80;;;17.60;99.90;;;;;;4955862;29;20197;-78
2023/04/07 12:34:06;;;;;;;3.00;1.90;;;17.60;99.90;;;;;;4952225;29;20780;-78
2023/04/07 12:36:37;;;;;;;4.05;1.52;;;17.50;99.90;;;;;;4955041;28;20244;-77
2023/04/07 12:39:08;;;;;;;2.50;1.70;;;17.50;99.90;;;;;;4952034;29;20710;-77
2023/04/07 12:41:39;;;;;;;1.67;1.35;;;17.40;99.90;;;;;;4955112;29;20657;-79
2023/04/07 12:44:13;;;;;;;1.92;1.10;;;17.40;99.90;;;;;;4954395;29;20581;-77
2023/04/07 12:46:44;;;;;;;3.05;1.30;;;17.40;99.90;;;;;;4956162;29;20687;-79
2023/04/07 12:49:15;;;;;;;1.60;1.10;;;17.40;99.90;;;;;;4955306;29;20205;-77
2023/04/07 12:51:46;;;;;;;1.83;1.27;;;17.40;99.90;;;;;;4949545;29;20207;-79
2023/04/07 12:54:17;;;;;;;1.77;1.40;;;17.40;99.90;;;;;;4957605;28;20656;-80
2023/04/07 12:56:48;;;;;;;2.30;1.35;;;17.40;99.90;;;;;;4957083;29;20664;-80
2023/04/07 12:59:21;;;;;;;1.77;1.20;;;17.30;99.90;;;;;;4957271;29;20225;-79
2023/04/07 13:01:52;;;;;;;2.30;1.23;;;17.30;99.90;;;;;;4956204;29;20232;-80
2023/04/07 13:04:25;;;;;;;2.45;1.30;;;17.30;99.90;;;;;;4956916;29;20570;-77
2023/04/07 13:06:56;;;;;;;2.00;1.30;;;17.20;99.90;;;;;;4956536;29;20574;-80
2023/04/07 13:09:27;;;;;;;2.30;1.20;;;17.20;99.90;;;;;;4956955;29;20206;-77
2023/04/07 13:11:58;;;;;;;1.48;1.23;;;17.20;99.90;;;;;;4956777;29;20209;-80
2023/04/07 13:14:31;;;;;;;1.52;1.30;;;17.20;99.90;;;;;;4956626;29;20260;-79